Accueil
METAR-TAF:

METAR-TAF

Aéroports :

Base aérienne de Büchel

Büchel, Allemagne

latitude: 50-10N, longitude: 007-04E, altitude: 478 m

Observation

Le bulletin a été fait il y a 57 minutes, à 08:20 UTC
Vent 13 kt de nord-est
Température 6°C
Humidité 52%
Pression 1023 hPa
Visibilité 10 km ou plus

METAR: ETSB 170820Z AUTO 04013KT 9999 // ////// 06/M03 Q1023 ///

Heure: 11:17 (09:17 UTC)

Prévision

Le bulletin a été fait il y a 26 heures et 12 minutes, à 07:05 UTC
Prévision valable du 16 à 08 UTC au 16 à 17 UTC
Vent 10 kt de nord-est
Visibilité 10 km ou plus
Nuages fragmentés à une hauteur de 3000 ft

TAF: ETSB 160705Z 1608/1617 04010KT 9999 NSW BKN030 BY ETGL

Observations et prévisions météorologiques de plus de 4000 aéroports (messages METAR et TAF).

Les stations disponibles sont représentées par des disques jaunes et rouges sur la carte.

Passer la souris dessus pour voir le nom de la station.

Cliquer dessus pour voir les observations et prévisions météorologiques.

Pour changer de carte: cliquez sur les boutons verts avec une croix noire pour zoomer, sur le bouton vert avec un tiret pour effectuer un zoom arrière, ou sur les flèches vertes pour les cartes adjacentes.


METAR-TAF: